Time;durP1;ratioP1;P1;durP2;ratioP2;P2;SDS_P1;SDS_P2;PMS_P1;PMS_P2;Temp;Humidity;BMP_temperature;BMP_pressure;BME280_temperature;BME280_humidity;BME280_pressure;Samples;Min_cycle;Max_cycle;Signal;HPM_P1;HPM_P2
2023/10/26 00:01:24;;;;;;;0.20;0.20;;;9.40;99.90;;;;;;5015999;28;20116;-84
2023/10/26 00:03:50;;;;;;;0.65;0.65;;;9.50;99.90;;;;;;5016699;28;20045;-84
2023/10/26 00:06:15;;;;;;;1.23;0.85;;;9.50;99.90;;;;;;5017874;28;20127;-85
2023/10/26 00:08:41;;;;;;;3.72;0.90;;;9.40;99.90;;;;;;5018974;28;20048;-86
2023/10/26 00:11:07;;;;;;;1.73;1.50;;;9.60;99.90;;;;;;5019550;28;20380;-85
2023/10/26 00:13:32;;;;;;;0.00;0.00;;;9.50;99.90;;;;;;5017851;28;20041;-85
2023/10/26 00:15:58;;;;;;;0.50;0.32;;;9.50;99.90;;;;;;5019329;28;20100;-85
2023/10/26 00:18:24;;;;;;;0.85;0.47;;;9.40;99.90;;;;;;5018641;28;20451;-84
2023/10/26 00:20:56;;;;;;;3.50;1.30;;;9.40;99.90;;;;;;5019945;28;20042;-85
2023/10/26 00:23:22;;;;;;;2.95;1.65;;;9.40;99.90;;;;;;5021421;28;20049;-84
2023/10/26 00:25:47;;;;;;;1.17;0.85;;;9.40;99.90;;;;;;5020009;28;20460;-85
2023/10/26 00:28:13;;;;;;;0.73;0.73;;;9.50;99.90;;;;;;5020745;28;20034;-84
2023/10/26 00:30:38;;;;;;;0.80;0.73;;;9.40;99.90;;;;;;5020337;28;20614;-83
2023/10/26 00:33:04;;;;;;;0.85;0.85;;;9.40;99.90;;;;;;5019123;28;20044;-84
2023/10/26 00:35:29;;;;;;;1.05;0.75;;;9.40;99.90;;;;;;5018622;28;20131;-84
2023/10/26 00:37:55;;;;;;;1.33;1.23;;;9.40;99.90;;;;;;5020005;28;20046;-84
2023/10/26 00:40:20;;;;;;;1.23;1.02;;;9.30;99.90;;;;;;5019568;28;20497;-84
2023/10/26 00:42:46;;;;;;;2.05;0.80;;;9.30;99.90;;;;;;5018592;28;20046;-84
2023/10/26 00:45:12;;;;;;;2.65;1.85;;;9.30;99.90;;;;;;5018892;28;20049;-84
2023/10/26 00:47:38;;;;;;;0.95;0.85;;;9.20;99.90;;;;;;5033727;28;20037;-85
2023/10/26 00:50:04;;;;;;;0.75;0.73;;;9.20;99.90;;;;;;5018639;28;20513;-85
2023/10/26 00:52:30;;;;;;;0.77;0.73;;;9.20;99.90;;;;;;5018459;28;20038;-84
2023/10/26 00:54:56;;;;;;;1.00;0.80;;;9.10;99.90;;;;;;5019019;28;20038;-84
2023/10/26 00:57:23;;;;;;;1.17;0.70;;;9.10;99.90;;;;;;5019433;28;20053;-85
2023/10/26 00:59:50;;;;;;;0.77;0.73;;;9.20;99.90;;;;;;5018995;28;20053;-84
2023/10/26 01:02:18;;;;;;;0.77;0.77;;;9.20;99.90;;;;;;5018072;28;20099;-84
2023/10/26 01:04:44;;;;;;;4.25;1.33;;;9.20;99.90;;;;;;5019314;28;20041;-84
2023/10/26 01:07:10;;;;;;;2.00;1.27;;;9.40;99.90;;;;;;5019816;28;20447;-84
2023/10/26 01:09:35;;;;;;;2.35;0.85;;;9.30;99.90;;;;;;5019829;28;20140;-85
2023/10/26 01:12:01;;;;;;;1.05;0.98;;;9.30;99.90;;;;;;5019111;28;20069;-84
2023/10/26 01:14:27;;;;;;;0.75;0.75;;;9.30;99.90;;;;;;5019286;28;20467;-85
2023/10/26 01:16:54;;;;;;;1.98;1.80;;;9.30;99.90;;;;;;5019416;28;20126;-84
2023/10/26 01:19:20;;;;;;;1.48;1.38;;;9.30;99.90;;;;;;5018344;28;20045;-84
2023/10/26 01:21:53;;;;;;;1.20;1.05;;;9.30;99.90;;;;;;5020808;28;20395;-84
2023/10/26 01:24:19;;;;;;;1.60;1.38;;;9.30;99.90;;;;;;5019886;28;20049;-84
2023/10/26 01:26:45;;;;;;;1.73;1.48;;;9.30;99.90;;;;;;5020146;28;20030;-84
2023/10/26 01:29:11;;;;;;;1.13;1.02;;;9.20;99.90;;;;;;5019818;28;20037;-85
2023/10/26 01:31:36;;;;;;;1.05;0.93;;;9.70;99.90;;;;;;5019532;28;20053;-84
2023/10/26 01:34:02;;;;;;;6.07;1.92;;;9.10;99.90;;;;;;5034930;28;20048;-84
2023/10/26 01:36:28;;;;;;;2.78;2.08;;;9.10;99.90;;;;;;5019720;28;20038;-84
2023/10/26 01:38:55;;;;;;;1.35;1.25;;;9.00;99.90;;;;;;5018185;28;20042;-85
2023/10/26 01:41:21;;;;;;;1.77;1.08;;;9.00;99.90;;;;;;5017257;28;20053;-84
2023/10/26 01:43:47;;;;;;;1.17;1.08;;;9.00;99.90;;;;;;5018347;28;20046;-85
2023/10/26 01:46:13;;;;;;;1.73;1.08;;;9.00;99.90;;;;;;5018514;28;20050;-85
2023/10/26 01:48:39;;;;;;;1.90;0.90;;;9.00;99.90;;;;;;5018856;28;20048;-85
2023/10/26 01:51:05;;;;;;;2.65;1.85;;;9.00;99.90;;;;;;5018380;28;20077;-85
2023/10/26 01:53:30;;;;;;;2.78;0.95;;;9.00;99.90;;;;;;5018778;28;20038;-84
2023/10/26 01:55:56;;;;;;;1.75;1.20;;;9.00;99.90;;;;;;5018388;28;20046;-85
2023/10/26 01:58:22;;;;;;;1.50;1.33;;;9.00;99.90;;;;;;5017900;28;20053;-85
2023/10/26 02:00:47;;;;;;;1.20;0.95;;;9.00;99.90;;;;;;5017595;28;20499;-84
2023/10/26 02:03:13;;;;;;;1.50;1.40;;;9.00;99.90;;;;;;5017612;28;20042;-84
2023/10/26 02:05:38;;;;;;;0.60;0.60;;;9.10;99.90;;;;;;5016577;28;20046;-84
2023/10/26 02:08:04;;;;;;;1.83;1.38;;;9.50;99.90;;;;;;5017677;28;20044;-84
2023/10/26 02:10:30;;;;;;;3.33;2.78;;;9.10;99.90;;;;;;5017970;28;20117;-84
2023/10/26 02:12:56;;;;;;;1.33;0.95;;;9.10;99.90;;;;;;5017455;28;20041;-85
2023/10/26 02:15:22;;;;;;;2.33;1.40;;;9.10;99.90;;;;;;5016818;28;20131;-84
2023/10/26 02:17:48;;;;;;;5.25;2.67;;;9.10;99.90;;;;;;5018643;28;20034;-85
2023/10/26 02:20:14;;;;;;;2.55;1.58;;;9.20;99.90;;;;;;5019996;28;20088;-83
2023/10/26 02:22:39;;;;;;;1.35;1.25;;;9.20;99.90;;;;;;5020053;28;20120;-84
2023/10/26 02:25:05;;;;;;;1.67;1.58;;;9.20;99.90;;;;;;5019372;28;20476;-85
2023/10/26 02:27:32;;;;;;;1.65;1.20;;;9.20;99.90;;;;;;5019145;28;20042;-84
2023/10/26 02:29:58;;;;;;;5.05;3.67;;;9.50;99.90;;;;;;5018865;28;20046;-84
2023/10/26 02:32:24;;;;;;;3.38;2.30;;;9.20;99.90;;;;;;5017785;28;20523;-84
2023/10/26 02:34:49;;;;;;;1.80;1.42;;;9.20;99.90;;;;;;5018531;28;20061;-83
2023/10/26 02:37:18;;;;;;;6.03;3.42;;;9.10;99.90;;;;;;5019143;28;20133;-84
2023/10/26 02:39:44;;;;;;;5.30;1.75;;;9.20;99.90;;;;;;5019218;28;20034;-84
2023/10/26 02:42:09;;;;;;;2.40;1.55;;;9.10;99.90;;;;;;5019267;28;20044;-84
2023/10/26 02:44:35;;;;;;;1.55;1.45;;;9.10;99.90;;;;;;5019199;28;20042;-84
2023/10/26 02:47:01;;;;;;;2.40;1.40;;;9.10;99.90;;;;;;5018144;28;20117;-84
2023/10/26 02:49:26;;;;;;;4.85;2.15;;;9.10;99.90;;;;;;5019699;28;20102;-84
2023/10/26 02:51:52;;;;;;;2.55;1.55;;;9.20;99.90;;;;;;5019994;28;20120;-84
2023/10/26 02:54:18;;;;;;;1.00;0.93;;;9.10;99.90;;;;;;5018177;28;20054;-84
2023/10/26 02:56:43;;;;;;;2.25;1.30;;;9.10;99.90;;;;;;5019344;28;20058;-83
2023/10/26 02:59:09;;;;;;;3.42;2.35;;;9.10;99.90;;;;;;5019926;28;20045;-85
2023/10/26 03:01:35;;;;;;;4.05;2.47;;;9.10;99.90;;;;;;5018357;28;20049;-85
2023/10/26 03:04:02;;;;;;;3.28;2.97;;;9.10;99.90;;;;;;5019954;28;20458;-84
2023/10/26 03:06:27;;;;;;;2.10;1.58;;;9.10;99.90;;;;;;5002089;28;20042;-85
2023/10/26 03:08:53;;;;;;;2.53;1.25;;;9.10;99.90;;;;;;5019748;28;20415;-84
2023/10/26 03:11:19;;;;;;;0.77;0.77;;;9.10;99.90;;;;;;5019634;28;20102;-83
2023/10/26 03:13:44;;;;;;;5.90;2.28;;;9.10;99.90;;;;;;5020472;28;20038;-84
2023/10/26 03:16:10;;;;;;;2.75;1.20;;;9.10;99.90;;;;;;5019394;28;20046;-85
2023/10/26 03:18:38;;;;;;;2.63;2.42;;;9.10;99.90;;;;;;5018288;28;20034;-85
2023/10/26 03:21:04;;;;;;;1.77;1.40;;;9.20;99.90;;;;;;5018319;28;20042;-85
2023/10/26 03:23:30;;;;;;;3.90;1.27;;;9.10;99.90;;;;;;5017695;28;20503;-85
2023/10/26 03:25:56;;;;;;;2.25;2.05;;;9.10;99.90;;;;;;5015554;28;20050;-84
2023/10/26 03:28:21;;;;;;;4.32;1.52;;;9.10;99.90;;;;;;5017124;28;20369;-84
2023/10/26 03:30:47;;;;;;;2.42;2.22;;;9.10;99.90;;;;;;5016909;28;20042;-85
2023/10/26 03:33:13;;;;;;;3.53;2.95;;;9.70;99.90;;;;;;5015921;28;20046;-86
2023/10/26 03:35:38;;;;;;;2.42;2.22;;;9.10;99.90;;;;;;5015811;28;20049;-84
2023/10/26 03:38:04;;;;;;;2.53;1.75;;;9.10;99.90;;;;;;5016113;28;20087;-85
2023/10/26 03:40:29;;;;;;;1.85;1.38;;;9.10;99.90;;;;;;5017098;28;20052;-84
2023/10/26 03:42:55;;;;;;;2.30;1.92;;;9.10;99.90;;;;;;5020851;28;20037;-85
2023/10/26 03:45:21;;;;;;;1.25;1.10;;;9.00;99.90;;;;;;5019339;28;20057;-85
2023/10/26 03:47:46;;;;;;;2.58;2.33;;;9.00;99.90;;;;;;5023211;28;20365;-85
2023/10/26 03:50:12;;;;;;;2.90;1.80;;;9.00;99.90;;;;;;5022123;28;20038;-85
2023/10/26 03:52:37;;;;;;;2.53;2.30;;;9.10;99.90;;;;;;5021917;28;20095;-84
2023/10/26 03:55:04;;;;;;;2.22;1.95;;;9.00;99.90;;;;;;5019322;28;20129;-85
2023/10/26 03:57:32;;;;;;;0.88;0.88;;;9.00;99.90;;;;;;5019975;28;20512;-86
2023/10/26 03:59:58;;;;;;;3.10;2.22;;;8.90;99.90;;;;;;5021262;28;20038;-85
2023/10/26 04:02:23;;;;;;;4.78;1.50;;;8.90;99.90;;;;;;5021095;28;20049;-85
2023/10/26 04:04:50;;;;;;;1.63;1.38;;;8.90;99.90;;;;;;5020474;28;20125;-85
2023/10/26 04:07:16;;;;;;;3.47;2.17;;;8.80;99.90;;;;;;5021113;28;20046;-85
2023/10/26 04:09:42;;;;;;;2.13;1.92;;;8.90;99.90;;;;;;5020513;28;20049;-85
2023/10/26 04:12:08;;;;;;;0.60;0.60;;;8.80;99.90;;;;;;5035534;28;20081;-84
2023/10/26 04:14:33;;;;;;;2.53;1.67;;;8.80;99.90;;;;;;5020846;28;20076;-85
2023/10/26 04:16:59;;;;;;;0.57;0.57;;;8.80;99.90;;;;;;5019395;28;20049;-83
2023/10/26 04:19:25;;;;;;;1.95;1.50;;;8.80;99.90;;;;;;5020128;28;20053;-84
2023/10/26 04:21:50;;;;;;;1.02;0.98;;;8.80;99.90;;;;;;5020296;28;20045;-84
2023/10/26 04:24:16;;;;;;;3.08;2.38;;;8.80;99.90;;;;;;5021010;28;20037;-83
2023/10/26 04:26:42;;;;;;;2.83;1.05;;;8.80;99.90;;;;;;5020601;28;20033;-84
2023/10/26 04:29:08;;;;;;;1.48;0.68;;;8.80;99.90;;;;;;5020847;28;20050;-84
2023/10/26 04:31:34;;;;;;;0.98;0.93;;;8.80;99.90;;;;;;5020042;28;20044;-83
2023/10/26 04:34:00;;;;;;;1.75;1.60;;;8.80;99.90;;;;;;5020859;28;20049;-84
2023/10/26 04:36:26;;;;;;;4.13;1.98;;;8.80;99.90;;;;;;5021346;28;20050;-83
2023/10/26 04:38:52;;;;;;;1.45;1.10;;;8.80;99.90;;;;;;5021945;28;20052;-83
2023/10/26 04:41:18;;;;;;;1.88;1.10;;;8.80;99.90;;;;;;5020985;28;20400;-83
2023/10/26 04:43:43;;;;;;;2.22;1.33;;;8.80;99.90;;;;;;5020898;28;20089;-84
2023/10/26 04:46:09;;;;;;;2.40;1.38;;;8.80;99.90;;;;;;5020881;28;20554;-83
2023/10/26 04:48:35;;;;;;;1.33;1.08;;;8.80;99.90;;;;;;5018477;28;20034;-83
2023/10/26 04:51:00;;;;;;;4.88;1.00;;;8.80;99.90;;;;;;5020193;28;20046;-84
2023/10/26 04:53:26;;;;;;;1.95;1.63;;;8.80;99.90;;;;;;5018605;28;20892;-84
2023/10/26 04:55:52;;;;;;;1.27;0.93;;;8.80;99.90;;;;;;5019774;28;20089;-84
2023/10/26 04:58:18;;;;;;;1.88;1.55;;;8.80;99.90;;;;;;5020087;28;20057;-85
2023/10/26 05:00:43;;;;;;;1.95;1.75;;;8.70;99.90;;;;;;5021143;28;20056;-83
2023/10/26 05:03:09;;;;;;;2.80;1.38;;;8.70;99.90;;;;;;5020846;28;20372;-83
2023/10/26 05:05:35;;;;;;;1.15;1.05;;;8.70;99.90;;;;;;5020563;28;20128;-84
2023/10/26 05:08:01;;;;;;;2.50;0.80;;;8.80;99.90;;;;;;5019416;28;20046;-84
2023/10/26 05:10:27;;;;;;;2.85;1.40;;;8.60;99.90;;;;;;5021117;28;20476;-83
2023/10/26 05:12:53;;;;;;;2.63;1.80;;;8.70;99.90;;;;;;5021002;28;20108;-84
2023/10/26 05:15:19;;;;;;;1.90;0.93;;;8.60;99.90;;;;;;5021057;28;20049;-84
2023/10/26 05:17:45;;;;;;;10.52;2.08;;;8.60;99.90;;;;;;5020537;28;20069;-85
2023/10/26 05:20:11;;;;;;;6.95;1.92;;;8.70;99.90;;;;;;5022026;28;20081;-84
2023/10/26 05:22:36;;;;;;;1.10;1.00;;;8.80;99.90;;;;;;5020608;28;20042;-85
2023/10/26 05:25:04;;;;;;;4.05;1.58;;;8.80;99.90;;;;;;5021612;28;20038;-84
2023/10/26 05:27:32;;;;;;;2.33;2.13;;;8.70;99.90;;;;;;5021453;28;20056;-85
2023/10/26 05:29:58;;;;;;;0.95;0.82;;;8.60;99.90;;;;;;5021227;28;20041;-84
2023/10/26 05:32:23;;;;;;;2.90;1.45;;;8.60;99.90;;;;;;5021689;28;20038;-84
2023/10/26 05:34:49;;;;;;;2.05;1.85;;;9.80;99.90;;;;;;5021314;28;20081;-84
2023/10/26 05:37:15;;;;;;;3.30;2.20;;;8.60;99.90;;;;;;5022644;28;20046;-84
2023/10/26 05:39:41;;;;;;;2.28;1.88;;;8.60;99.90;;;;;;5021089;28;20053;-84
2023/10/26 05:42:06;;;;;;;1.15;1.05;;;8.50;99.90;;;;;;5021522;28;20050;-85
2023/10/26 05:44:32;;;;;;;0.93;0.55;;;8.40;99.90;;;;;;5020609;28;20047;-85
2023/10/26 05:46:59;;;;;;;3.58;1.80;;;8.40;99.90;;;;;;5020994;28;20034;-84
2023/10/26 05:49:25;;;;;;;6.07;1.70;;;8.30;99.90;;;;;;5021706;28;20105;-84
2023/10/26 05:51:51;;;;;;;1.80;1.70;;;8.20;99.90;;;;;;5021471;28;20065;-85
2023/10/26 05:54:16;;;;;;;5.95;3.47;;;8.20;99.90;;;;;;5021075;28;20505;-84
2023/10/26 05:56:42;;;;;;;3.83;2.72;;;8.20;99.90;;;;;;5022327;28;20551;-84
2023/10/26 05:59:07;;;;;;;2.13;1.58;;;8.20;99.90;;;;;;5021313;28;20042;-85
2023/10/26 06:01:33;;;;;;;2.38;1.92;;;8.30;99.90;;;;;;5020907;28;20081;-84
2023/10/26 06:03:59;;;;;;;0.93;0.85;;;8.30;99.90;;;;;;5022107;28;20092;-84
2023/10/26 06:06:24;;;;;;;1.27;1.17;;;8.30;99.90;;;;;;5021719;28;20045;-84
2023/10/26 06:08:50;;;;;;;1.08;0.82;;;8.30;99.90;;;;;;5020957;28;20458;-84
2023/10/26 06:11:16;;;;;;;3.55;1.67;;;8.40;99.90;;;;;;5016245;28;20546;-84
2023/10/26 06:13:42;;;;;;;2.05;1.10;;;8.40;99.90;;;;;;5015412;28;20038;-84
2023/10/26 06:16:12;;;;;;;1.58;1.13;;;8.40;99.90;;;;;;5015451;28;20113;-84
2023/10/26 06:18:39;;;;;;;3.40;2.45;;;8.40;99.90;;;;;;5014899;28;20439;-84
2023/10/26 06:21:05;;;;;;;2.80;1.80;;;8.40;99.90;;;;;;5014962;28;20053;-84
2023/10/26 06:23:30;;;;;;;0.82;0.80;;;8.40;99.90;;;;;;5015075;28;20053;-84
2023/10/26 06:25:57;;;;;;;1.55;1.15;;;8.40;99.90;;;;;;5014009;28;20041;-84
2023/10/26 06:28:23;;;;;;;1.65;1.52;;;8.40;99.90;;;;;;5014140;28;20037;-84
2023/10/26 06:30:48;;;;;;;2.28;1.48;;;8.30;99.90;;;;;;5013304;28;20502;-84
2023/10/26 06:33:14;;;;;;;0.17;0.17;;;8.20;99.90;;;;;;5012224;28;20157;-85
2023/10/26 06:35:39;;;;;;;5.13;1.77;;;8.00;99.90;;;;;;5013006;28;20038;-84
2023/10/26 06:38:05;;;;;;;0.98;0.95;;;7.90;99.90;;;;;;5011991;28;20113;-84
2023/10/26 06:40:30;;;;;;;1.75;1.55;;;7.80;99.90;;;;;;5009241;28;20045;-85
2023/10/26 06:42:56;;;;;;;4.65;1.63;;;7.70;99.90;;;;;;5010395;28;20052;-84
2023/10/26 06:45:22;;;;;;;0.38;0.38;;;7.70;99.90;;;;;;5010108;28;20050;-84
2023/10/26 06:47:47;;;;;;;0.98;0.90;;;7.60;99.90;;;;;;5009885;28;20484;-84
2023/10/26 06:50:13;;;;;;;0.10;0.10;;;7.60;99.90;;;;;;5010267;28;20407;-84
2023/10/26 06:52:38;;;;;;;2.33;1.23;;;7.60;99.90;;;;;;5010108;28;20037;-85
2023/10/26 06:55:04;;;;;;;2.03;1.55;;;7.60;99.90;;;;;;5041416;28;20046;-85
2023/10/26 06:57:34;;;;;;;0.32;0.32;;;7.60;99.90;;;;;;5010084;28;20152;-84
2023/10/26 07:00:01;;;;;;;0.52;0.52;;;7.50;99.90;;;;;;5009986;28;20926;-84
2023/10/26 07:02:26;;;;;;;1.83;1.45;;;7.50;99.90;;;;;;5010061;28;20141;-84
2023/10/26 07:04:52;;;;;;;2.05;1.88;;;7.60;99.90;;;;;;5042368;28;20125;-84
2023/10/26 07:07:17;;;;;;;3.45;2.08;;;7.60;99.90;;;;;;5010251;28;20085;-84
2023/10/26 07:09:43;;;;;;;0.98;0.98;;;7.60;99.90;;;;;;5010887;28;20046;-84
2023/10/26 07:12:09;;;;;;;2.38;1.27;;;7.60;99.90;;;;;;5026570;28;20112;-83
2023/10/26 07:14:36;;;;;;;0.57;0.57;;;7.60;99.90;;;;;;5011007;28;20050;-84
2023/10/26 07:17:02;;;;;;;0.80;0.77;;;7.70;99.90;;;;;;5015521;28;20054;-84
2023/10/26 07:19:27;;;;;;;0.70;0.70;;;7.70;99.90;;;;;;5015322;28;20112;-84
2023/10/26 07:21:53;;;;;;;0.25;0.25;;;7.70;99.90;;;;;;5014865;28;20029;-84
2023/10/26 07:24:19;;;;;;;0.25;0.25;;;7.80;99.90;;;;;;5014625;28;20165;-84
2023/10/26 07:26:45;;;;;;;0.00;0.00;;;7.80;99.90;;;;;;5015132;28;20049;-84
2023/10/26 07:29:10;;;;;;;0.28;0.28;;;7.80;99.90;;;;;;5014540;28;20046;-84
2023/10/26 07:31:36;;;;;;;1.75;0.82;;;7.90;99.90;;;;;;5015999;28;20088;-84
2023/10/26 07:34:01;;;;;;;1.45;1.00;;;8.10;99.90;;;;;;5015610;28;20138;-84
2023/10/26 07:36:30;;;;;;;2.67;1.42;;;8.20;99.90;;;;;;5014469;28;20472;-84
2023/10/26 07:38:56;;;;;;;1.85;1.67;;;8.40;99.90;;;;;;5012575;28;20056;-84
2023/10/26 07:41:25;;;;;;;2.13;1.85;;;8.40;99.90;;;;;;5015614;28;20658;-84
2023/10/26 07:43:51;;;;;;;1.98;1.80;;;8.50;99.90;;;;;;5015534;28;20057;-84
2023/10/26 07:46:17;;;;;;;2.80;1.70;;;8.60;99.90;;;;;;5015143;28;20042;-83
2023/10/26 07:48:42;;;;;;;4.30;1.52;;;8.80;99.90;;;;;;5014404;28;20065;-84
2023/10/26 07:51:08;;;;;;;5.97;3.30;;;9.10;99.90;;;;;;5015985;28;20046;-84
2023/10/26 07:53:33;;;;;;;1.65;1.55;;;9.20;99.90;;;;;;5016207;28;20045;-84
2023/10/26 07:55:59;;;;;;;3.50;2.20;;;9.80;99.90;;;;;;5015616;28;20064;-84
2023/10/26 07:58:27;;;;;;;2.28;2.08;;;9.50;99.90;;;;;;5012900;28;20510;-85
2023/10/26 08:00:54;;;;;;;2.28;1.48;;;9.60;99.90;;;;;;5013452;28;20567;-85
2023/10/26 08:03:19;;;;;;;2.97;2.53;;;9.70;99.90;;;;;;5014160;28;20300;-84
2023/10/26 08:05:55;;;;;;;1.45;1.15;;;9.80;99.90;;;;;;5013564;28;20053;-83
2023/10/26 08:08:20;;;;;;;1.77;1.27;;;9.90;99.90;;;;;;4995585;28;20100;-84
2023/10/26 08:10:46;;;;;;;4.55;1.92;;;9.90;99.90;;;;;;5012905;28;20038;-84
2023/10/26 08:13:12;;;;;;;3.05;2.58;;;10.00;99.90;;;;;;5045116;28;20137;-84
2023/10/26 08:15:41;;;;;;;3.75;2.75;;;10.00;99.90;;;;;;5045719;28;20112;-84
2023/10/26 08:18:07;;;;;;;2.42;1.73;;;10.00;99.90;;;;;;5014251;28;20467;-83
2023/10/26 08:20:32;;;;;;;3.65;3.08;;;10.10;99.90;;;;;;5012322;28;20052;-83
2023/10/26 08:22:58;;;;;;;3.97;2.42;;;9.90;99.90;;;;;;5013868;28;20042;-84
2023/10/26 08:25:24;;;;;;;2.60;2.35;;;9.90;99.90;;;;;;5003745;28;20073;-84
2023/10/26 08:27:49;;;;;;;3.95;2.75;;;9.90;99.90;;;;;;5011786;28;20061;-83
2023/10/26 08:30:15;;;;;;;1.50;1.40;;;10.00;99.90;;;;;;5010884;28;20072;-84
2023/10/26 08:32:40;;;;;;;6.13;2.67;;;9.90;99.90;;;;;;5010258;28;20420;-83
2023/10/26 08:35:06;;;;;;;3.80;3.15;;;10.00;99.90;;;;;;5012317;28;20076;-83
2023/10/26 08:37:32;;;;;;;4.57;1.73;;;10.00;99.90;;;;;;5012230;28;20045;-83
2023/10/26 08:39:57;;;;;;;2.35;1.58;;;10.00;99.90;;;;;;5012509;28;20049;-83
2023/10/26 08:42:23;;;;;;;2.13;1.92;;;9.90;99.90;;;;;;5011909;28;20041;-84
2023/10/26 08:44:49;;;;;;;1.75;1.65;;;9.90;99.90;;;;;;5012236;28;20085;-84
2023/10/26 08:47:17;;;;;;;3.33;2.17;;;9.90;99.90;;;;;;5012080;28;20045;-83
2023/10/26 08:49:45;;;;;;;1.55;1.40;;;9.90;99.90;;;;;;5012843;28;20048;-84
2023/10/26 08:52:11;;;;;;;4.95;3.55;;;9.90;99.90;;;;;;5013151;28;20046;-84
2023/10/26 08:54:37;;;;;;;3.83;2.85;;;9.90;99.90;;;;;;5010223;28;20034;-84
2023/10/26 08:57:09;;;;;;;3.03;1.58;;;9.90;99.90;;;;;;5013958;28;20138;-83
2023/10/26 08:59:35;;;;;;;3.17;2.05;;;9.90;99.90;;;;;;5013188;28;20054;-85
2023/10/26 09:02:01;;;;;;;2.58;1.95;;;9.80;99.90;;;;;;5009952;28;20656;-85
2023/10/26 09:04:27;;;;;;;1.73;1.60;;;10.20;99.90;;;;;;5010762;28;20042;-84
2023/10/26 09:06:53;;;;;;;7.35;1.80;;;9.90;99.90;;;;;;5010683;28;20476;-85
2023/10/26 09:09:18;;;;;;;2.90;1.92;;;9.90;99.90;;;;;;5009726;28;20046;-84
2023/10/26 09:11:50;;;;;;;4.68;2.90;;;9.90;99.90;;;;;;5010377;28;20403;-84
2023/10/26 09:14:18;;;;;;;5.32;1.35;;;10.00;99.90;;;;;;5008161;28;20496;-84
2023/10/26 09:16:45;;;;;;;4.13;2.35;;;10.00;99.90;;;;;;5010643;28;20046;-84
2023/10/26 09:19:12;;;;;;;2.38;1.65;;;9.90;99.90;;;;;;5011390;28;20088;-85
2023/10/26 09:21:57;;;;;;;2.65;1.77;;;9.90;99.90;;;;;;5010965;28;20045;-85
2023/10/26 09:24:26;;;;;;;4.72;3.50;;;9.90;99.90;;;;;;5005592;28;20128;-85
2023/10/26 09:26:59;;;;;;;5.40;3.05;;;9.80;99.90;;;;;;5011802;28;20050;-85
2023/10/26 09:29:41;;;;;;;2.35;2.03;;;9.80;99.90;;;;;;5011562;28;20057;-84
2023/10/26 09:32:07;;;;;;;1.85;1.70;;;9.80;99.90;;;;;;5010627;28;20046;-85
2023/10/26 09:34:41;;;;;;;5.78;1.30;;;9.90;99.90;;;;;;5010002;28;20140;-84
2023/10/26 09:37:08;;;;;;;3.58;2.50;;;10.00;99.90;;;;;;5011748;28;20050;-85
2023/10/26 09:39:36;;;;;;;2.85;1.98;;;10.00;99.90;;;;;;5011702;28;20053;-85
2023/10/26 09:42:05;;;;;;;2.83;2.08;;;10.10;99.90;;;;;;5009468;28;20065;-84
2023/10/26 09:44:31;;;;;;;2.08;1.63;;;10.10;99.90;;;;;;5011175;28;20045;-85
2023/10/26 09:46:58;;;;;;;3.05;1.80;;;10.20;99.90;;;;;;5010097;28;20101;-85
2023/10/26 09:49:25;;;;;;;3.10;2.25;;;10.20;99.90;;;;;;5011136;28;20518;-85
2023/10/26 09:51:51;;;;;;;1.40;1.30;;;10.30;99.90;;;;;;5011452;28;20116;-85
2023/10/26 09:54:20;;;;;;;3.92;2.60;;;10.30;99.90;;;;;;5009518;28;20050;-85
2023/10/26 09:56:49;;;;;;;4.07;2.58;;;10.30;99.90;;;;;;5011277;28;20053;-84
2023/10/26 09:59:16;;;;;;;2.97;2.78;;;10.30;99.90;;;;;;5010685;28;20073;-85
2023/10/26 10:01:41;;;;;;;4.20;2.72;;;10.30;99.90;;;;;;5010000;28;20092;-85
2023/10/26 10:04:09;;;;;;;2.35;2.13;;;10.30;99.90;;;;;;5011329;28;20050;-85
2023/10/26 10:06:54;;;;;;;1.65;1.38;;;10.50;99.90;;;;;;5010165;28;20038;-84
2023/10/26 10:09:25;;;;;;;2.53;2.03;;;10.60;99.90;;;;;;5009725;28;20042;-85
2023/10/26 10:12:11;;;;;;;3.95;2.10;;;10.80;99.90;;;;;;5010113;28;20038;-85
2023/10/26 10:14:50;;;;;;;4.72;3.20;;;11.00;99.90;;;;;;5008927;28;20492;-85
2023/10/26 10:17:21;;;;;;;5.60;2.17;;;11.20;99.90;;;;;;5008909;28;20050;-85
2023/10/26 10:20:07;;;;;;;3.00;2.40;;;11.40;99.90;;;;;;5008996;28;20042;-85
2023/10/26 10:22:39;;;;;;;5.55;2.58;;;11.60;99.90;;;;;;5004762;28;20124;-85
2023/10/26 10:25:05;;;;;;;3.72;2.95;;;11.70;99.90;;;;;;5010419;28;20058;-85
2023/10/26 10:27:31;;;;;;;1.67;1.50;;;11.90;99.90;;;;;;5010549;28;20125;-85
2023/10/26 10:30:07;;;;;;;4.55;2.15;;;11.90;99.90;;;;;;5009499;28;20161;-85
2023/10/26 10:32:47;;;;;;;;;;;12.20;99.90;;;;;;5010895;28;20053;-83
2023/10/26 10:35:24;;;;;;;4.57;2.67;;;12.50;99.90;;;;;;5009259;28;19983;-85
2023/10/26 10:38:13;;;;;;;6.75;2.60;;;12.40;99.90;;;;;;5010735;28;20046;-85
2023/10/26 10:40:40;;;;;;;3.42;3.00;;;12.40;99.90;;;;;;5004595;28;20325;-85
2023/10/26 10:43:06;;;;;;;4.50;2.45;;;12.30;99.90;;;;;;5009171;28;20052;-85
2023/10/26 10:45:32;;;;;;;3.10;2.78;;;12.10;99.90;;;;;;5009087;28;20046;-84
2023/10/26 10:47:57;;;;;;;10.57;3.75;;;12.00;99.90;;;;;;5010213;28;20053;-85
2023/10/26 10:50:24;;;;;;;6.68;3.92;;;11.90;99.90;;;;;;5009738;28;20431;-85
2023/10/26 10:52:55;;;;;;;2.80;2.17;;;11.70;99.90;;;;;;5009917;28;20042;-85
2023/10/26 10:55:31;;;;;;;2.00;1.80;;;11.70;99.90;;;;;;5010243;28;20045;-84
2023/10/26 10:57:59;;;;;;;3.45;1.77;;;11.70;99.90;;;;;;5007522;28;20412;-85
2023/10/26 11:00:41;;;;;;;3.78;2.95;;;11.60;99.90;;;;;;5009950;28;20136;-84
2023/10/26 11:03:07;;;;;;;6.53;2.33;;;12.00;99.90;;;;;;5010603;28;20439;-85
2023/10/26 11:05:38;;;;;;;1.70;1.48;;;11.60;1.00;;;;;;5008094;28;20053;-85
2023/10/26 11:08:07;;;;;;;6.07;2.67;;;11.70;99.90;;;;;;5010063;28;20326;-85
2023/10/26 11:10:34;;;;;;;4.43;2.80;;;11.80;99.90;;;;;;5011453;28;20486;-85
2023/10/26 11:13:00;;;;;;;2.75;2.45;;;11.90;99.90;;;;;;5010151;28;20491;-85
2023/10/26 11:15:36;;;;;;;2.63;2.10;;;12.10;99.90;;;;;;5009798;28;20053;-85
2023/10/26 11:18:04;;;;;;;3.88;2.28;;;12.40;99.90;;;;;;5010251;28;20053;-85
2023/10/26 11:20:40;;;;;;;2.80;2.03;;;12.60;1.00;;;;;;5009788;28;20085;-85
2023/10/26 11:23:07;;;;;;;4.50;3.40;;;12.50;1.00;;;;;;5007005;28;20622;-84
2023/10/26 11:25:33;;;;;;;2.45;1.90;;;12.40;99.90;;;;;;5009783;28;20042;-85
2023/10/26 11:27:59;;;;;;;1.50;1.00;;;12.20;99.90;;;;;;5009265;28;20407;-85
2023/10/26 11:30:26;;;;;;;4.30;2.35;;;12.00;99.90;;;;;;5010725;28;20041;-84
2023/10/26 11:32:51;;;;;;;21.02;6.05;;;12.00;99.90;;;;;;5009374;28;20042;-84
2023/10/26 11:35:17;;;;;;;7.75;3.97;;;12.00;99.90;;;;;;5011050;28;20040;-84
2023/10/26 11:37:45;;;;;;;2.20;2.00;;;11.90;99.90;;;;;;5010378;28;20444;-84
2023/10/26 11:40:12;;;;;;;2.78;2.13;;;11.80;99.90;;;;;;5010539;28;20061;-84
2023/10/26 11:42:55;;;;;;;7.05;3.30;;;11.90;99.90;;;;;;5010986;28;20338;-84
2023/10/26 11:45:22;;;;;;;3.33;1.58;;;11.80;99.90;;;;;;5011148;28;20100;-84
2023/10/26 11:47:50;;;;;;;10.45;3.15;;;11.70;99.90;;;;;;5013304;28;20042;-83
2023/10/26 11:50:25;;;;;;;5.15;4.07;;;11.40;99.90;;;;;;5010301;28;20054;-84
2023/10/26 11:52:53;;;;;;;3.03;2.40;;;11.50;1.00;;;;;;5016383;28;20049;-84
2023/10/26 11:55:20;;;;;;;4.22;2.92;;;11.40;99.90;;;;;;5014853;28;20439;-84
2023/10/26 11:57:46;;;;;;;2.03;1.83;;;11.30;99.90;;;;;;5012532;28;20054;-84
2023/10/26 12:00:13;;;;;;;5.13;3.65;;;11.50;99.90;;;;;;5013473;28;20192;-83
2023/10/26 12:02:39;;;;;;;2.88;1.85;;;11.70;99.90;;;;;;5015050;28;20030;-83
2023/10/26 12:05:12;;;;;;;5.63;2.72;;;12.00;1.00;;;;;;5016231;28;20034;-83
2023/10/26 12:07:38;;;;;;;3.50;2.95;;;12.30;1.00;;;;;;5016858;28;20388;-83
2023/10/26 12:10:04;;;;;;;2.65;1.70;;;12.40;99.90;;;;;;5016524;28;20045;-83
2023/10/26 12:12:29;;;;;;;0.82;0.80;;;12.40;99.90;;;;;;5015791;28;20041;-83
2023/10/26 12:14:55;;;;;;;4.78;2.83;;;12.70;99.90;;;;;;5016753;28;20442;-83
2023/10/26 12:17:21;;;;;;;5.05;2.35;;;12.50;99.90;;;;;;5016405;28;20402;-83
2023/10/26 12:19:46;;;;;;;2.78;1.75;;;12.50;70.10;;;;;;5018386;28;20049;-82
2023/10/26 12:22:12;;;;;;;3.88;1.90;;;12.60;84.50;;;;;;5018910;28;20048;-82
2023/10/26 12:24:37;;;;;;;4.60;1.75;;;12.70;99.90;;;;;;5019237;28;20091;-83
2023/10/26 12:27:03;;;;;;;1.95;1.48;;;12.90;99.90;;;;;;5019257;28;20054;-83
2023/10/26 12:29:29;;;;;;;2.42;2.22;;;13.00;99.90;;;;;;5018217;28;20053;-82
2023/10/26 12:31:55;;;;;;;5.68;2.60;;;13.00;84.10;;;;;;5020671;28;20045;-83
2023/10/26 12:34:20;;;;;;;3.55;2.42;;;13.10;1.00;;;;;;5020952;28;20127;-83
2023/10/26 12:36:46;;;;;;;1.60;1.50;;;13.10;1.00;;;;;;5021933;28;20462;-83
2023/10/26 12:39:12;;;;;;;2.75;2.47;;;13.00;99.90;;;;;;5021265;28;20395;-82
2023/10/26 12:41:37;;;;;;;6.25;2.97;;;12.90;99.90;;;;;;5021604;28;20042;-82
2023/10/26 12:44:03;;;;;;;0.77;0.63;;;12.90;13.80;;;;;;5021525;28;20046;-82
2023/10/26 12:46:29;;;;;;;3.53;2.95;;;13.00;1.00;;;;;;5022054;28;20046;-82
2023/10/26 12:48:55;;;;;;;4.00;2.25;;;14.00;1.00;;;;;;5020792;28;20074;-82
2023/10/26 12:51:21;;;;;;;8.43;2.30;;;12.90;99.90;;;;;;5021911;28;20037;-82
2023/10/26 12:53:46;;;;;;;4.55;2.17;;;13.00;99.90;;;;;;5019980;28;20053;-82